createdAt,value
2023-01-27T00:00:55.127Z,6.00
2023-01-27T00:03:23.158Z,11.20
2023-01-27T00:05:51.165Z,3.40
2023-01-27T00:08:22.542Z,4.00
2023-01-27T00:11:12.778Z,6.80
2023-01-27T00:13:39.726Z,9.40
2023-01-27T00:16:08.677Z,8.00
2023-01-27T00:18:36.659Z,8.20
2023-01-27T00:21:22.334Z,4.80
2023-01-27T00:24:08.224Z,9.80
2023-01-27T00:26:37.647Z,5.60
2023-01-27T00:29:05.925Z,5.20
2023-01-27T00:31:51.777Z,6.00
2023-01-27T00:34:19.824Z,8.60
2023-01-27T00:36:48.122Z,7.40
2023-01-27T00:39:16.168Z,9.00
2023-01-27T00:41:45.633Z,9.00
2023-01-27T00:44:13.820Z,5.20
2023-01-27T00:46:42.429Z,7.00
2023-01-27T00:49:10.697Z,7.00
2023-01-27T00:51:39.156Z,6.60
2023-01-27T00:54:08.411Z,2.20
2023-01-27T00:56:36.447Z,6.00
2023-01-27T00:59:06.176Z,3.60
2023-01-27T01:01:34.974Z,3.80
2023-01-27T01:04:03.298Z,3.00
2023-01-27T01:06:31.358Z,3.80
2023-01-27T01:08:59.399Z,1.80
2023-01-27T01:11:27.632Z,3.00
2023-01-27T01:13:56.809Z,3.00
2023-01-27T01:16:27.023Z,3.40
2023-01-27T01:18:55.496Z,2.20
2023-01-27T01:21:23.632Z,3.00
2023-01-27T01:23:52.057Z,5.60
2023-01-27T01:26:20.181Z,3.20
2023-01-27T01:28:48.189Z,4.40
2023-01-27T01:31:17.725Z,3.20
2023-01-27T01:33:47.212Z,6.60
2023-01-27T01:36:16.072Z,3.40
2023-01-27T01:38:44.172Z,3.60
2023-01-27T01:41:16.109Z,3.80
2023-01-27T01:43:44.111Z,6.60
2023-01-27T01:46:12.779Z,3.40
2023-01-27T01:48:42.598Z,7.00
2023-01-27T01:51:14.098Z,4.00
2023-01-27T01:53:44.381Z,4.00
2023-01-27T01:56:14.912Z,4.00
2023-01-27T02:01:16.541Z,3.00
2023-01-27T02:03:45.461Z,3.60
2023-01-27T02:06:14.998Z,2.60
2023-01-27T02:08:43.668Z,1.00
2023-01-27T02:11:11.679Z,2.20
2023-01-27T02:13:39.706Z,3.20
2023-01-27T02:16:08.731Z,0.20
2023-01-27T02:18:36.966Z,3.00
2023-01-27T02:21:05.913Z,4.80
2023-01-27T02:23:41.502Z,3.00
2023-01-27T02:26:11.851Z,3.00
2023-01-27T02:28:40.225Z,3.20
2023-01-27T02:31:08.224Z,1.40
2023-01-27T02:33:36.713Z,3.60
2023-01-27T02:36:07.399Z,3.00
2023-01-27T02:38:36.921Z,3.00
2023-01-27T02:41:06.649Z,3.00
2023-01-27T02:43:36.089Z,1.00
2023-01-27T02:46:04.206Z,1.00
2023-01-27T02:48:32.320Z,1.80
2023-01-27T02:51:00.558Z,3.40
2023-01-27T02:53:28.502Z,1.80
2023-01-27T02:55:57.064Z,0.00
2023-01-27T02:58:25.056Z,3.00
2023-01-27T03:00:54.473Z,2.20
2023-01-27T03:03:23.039Z,1.80
2023-01-27T03:05:51.549Z,1.00
2023-01-27T03:08:19.627Z,3.20
2023-01-27T03:10:51.181Z,0.60
2023-01-27T03:13:22.737Z,0.00
2023-01-27T03:16:09.610Z,1.40
2023-01-27T03:18:39.077Z,0.20
2023-01-27T03:21:07.908Z,1.40
2023-01-27T03:23:36.222Z,2.40
2023-01-27T03:26:04.577Z,3.80
2023-01-27T03:28:32.672Z,1.80
2023-01-27T03:31:01.651Z,3.40
2023-01-27T03:33:29.825Z,1.00
2023-01-27T03:36:16.911Z,0.00
2023-01-27T03:39:02.212Z,1.80
2023-01-27T03:41:47.473Z,3.00
2023-01-27T03:44:33.691Z,1.40
2023-01-27T03:47:01.764Z,3.00
2023-01-27T03:49:29.815Z,2.20
2023-01-27T03:52:02.182Z,2.60
2023-01-27T03:54:30.220Z,0.60
2023-01-27T03:57:06.110Z,3.20
2023-01-27T03:59:35.226Z,3.00
2023-01-27T04:02:20.811Z,2.60
2023-01-27T04:05:06.722Z,3.20
2023-01-27T04:07:37.539Z,0.00
2023-01-27T04:10:05.914Z,2.20
2023-01-27T04:12:32.952Z,3.00
2023-01-27T04:15:00.944Z,3.00
2023-01-27T04:17:30.792Z,1.00
2023-01-27T04:19:58.789Z,3.00
2023-01-27T04:22:26.889Z,2.20
2023-01-27T04:24:56.262Z,1.40
2023-01-27T04:27:27.320Z,0.20
2023-01-27T04:29:55.367Z,3.00
2023-01-27T04:32:23.433Z,2.20
2023-01-27T04:34:51.587Z,1.80
2023-01-27T04:37:21.178Z,1.00
2023-01-27T04:39:50.125Z,1.00
2023-01-27T04:42:19.605Z,1.00
2023-01-27T04:44:47.646Z,5.20
2023-01-27T04:47:16.079Z,0.80
2023-01-27T04:49:44.075Z,1.00
2023-01-27T04:52:12.042Z,1.00
2023-01-27T04:54:40.063Z,2.20
2023-01-27T04:57:08.390Z,3.60
2023-01-27T04:59:37.748Z,1.40
2023-01-27T05:02:05.852Z,1.00
2023-01-27T05:04:33.869Z,1.40
2023-01-27T05:07:02.588Z,1.00
2023-01-27T05:09:30.848Z,0.00
2023-01-27T05:11:58.945Z,1.00
2023-01-27T05:14:27.362Z,0.00
2023-01-27T05:16:57.220Z,1.00
2023-01-27T05:19:25.333Z,0.80
2023-01-27T05:21:53.388Z,2.20
2023-01-27T05:24:21.424Z,2.60
2023-01-27T05:26:49.855Z,1.40
2023-01-27T05:29:17.855Z,0.20
2023-01-27T05:31:45.889Z,2.20
2023-01-27T05:34:19.607Z,0.80
2023-01-27T05:36:54.594Z,0.60
2023-01-27T05:39:22.599Z,1.80
2023-01-27T05:41:50.547Z,0.20
2023-01-27T05:44:18.629Z,0.00
2023-01-27T05:46:46.671Z,0.80
2023-01-27T05:49:18.380Z,2.20
2023-01-27T05:51:46.484Z,1.00
2023-01-27T05:54:14.952Z,0.00
2023-01-27T05:56:44.200Z,0.00
2023-01-27T05:59:12.348Z,1.00
2023-01-27T06:01:40.390Z,1.00
2023-01-27T06:04:08.560Z,2.20
2023-01-27T06:06:37.958Z,1.00
2023-01-27T06:09:08.351Z,0.00
2023-01-27T06:11:36.357Z,1.00
2023-01-27T06:14:04.405Z,1.80
2023-01-27T06:16:33.012Z,0.00
2023-01-27T06:19:01.116Z,1.00
2023-01-27T06:21:29.145Z,0.00
2023-01-27T06:23:59.214Z,3.00
2023-01-27T06:26:27.576Z,0.00
2023-01-27T06:28:57.774Z,0.00
2023-01-27T06:31:25.977Z,0.20
2023-01-27T06:33:54.645Z,1.00
2023-01-27T06:36:23.239Z,1.00
2023-01-27T06:38:51.299Z,3.00
2023-01-27T06:41:21.239Z,3.00
2023-01-27T06:43:49.661Z,0.00
2023-01-27T06:46:18.024Z,1.00
2023-01-27T06:48:46.136Z,3.20
2023-01-27T06:51:14.534Z,2.20
2023-01-27T06:53:42.896Z,0.00
2023-01-27T06:56:11.676Z,4.00
2023-01-27T06:58:41.857Z,3.60
2023-01-27T07:01:10.582Z,6.00
2023-01-27T07:03:38.843Z,3.00
2023-01-27T07:06:08.740Z,3.00
2023-01-27T07:08:36.816Z,3.60
2023-01-27T07:11:05.763Z,3.60
2023-01-27T07:13:33.874Z,2.20
2023-01-27T07:16:03.441Z,2.60
2023-01-27T07:18:31.798Z,1.00
2023-01-27T07:21:00.158Z,3.00
2023-01-27T07:23:28.203Z,0.40
2023-01-27T07:25:56.178Z,1.00
2023-01-27T07:28:24.253Z,2.20
2023-01-27T07:30:52.693Z,1.00
2023-01-27T07:33:22.281Z,1.00
2023-01-27T07:35:50.483Z,1.40
2023-01-27T07:38:18.479Z,1.00
2023-01-27T07:40:47.073Z,1.00
2023-01-27T07:43:17.007Z,1.40
2023-01-27T07:45:48.976Z,1.80
2023-01-27T07:48:17.546Z,0.80
2023-01-27T07:50:47.831Z,0.00
2023-01-27T07:53:16.000Z,0.00
2023-01-27T07:55:45.310Z,0.00
2023-01-27T07:58:13.789Z,0.40
2023-01-27T08:00:41.872Z,2.60
2023-01-27T08:03:16.857Z,0.60
2023-01-27T08:05:44.928Z,1.00
2023-01-27T08:08:14.576Z,0.00
2023-01-27T08:10:47.134Z,0.00
2023-01-27T08:13:15.144Z,1.00
2023-01-27T08:15:43.574Z,2.60
2023-01-27T08:18:11.871Z,0.60
2023-01-27T08:20:43.922Z,2.20
2023-01-27T08:23:14.464Z,1.00
2023-01-27T08:25:42.574Z,1.80
2023-01-27T08:28:10.640Z,1.00
2023-01-27T08:30:39.184Z,1.00
2023-01-27T08:33:07.296Z,3.80
2023-01-27T08:35:37.078Z,1.00
2023-01-27T08:38:05.163Z,3.00
2023-01-27T08:40:34.637Z,2.60
2023-01-27T08:43:05.148Z,2.60
2023-01-27T08:45:34.186Z,1.00
2023-01-27T08:48:03.031Z,1.00
2023-01-27T08:50:31.496Z,0.00
2023-01-27T08:52:59.771Z,1.00
2023-01-27T08:55:27.919Z,0.40
2023-01-27T08:57:58.135Z,1.00
2023-01-27T09:00:26.616Z,1.00
2023-01-27T09:02:54.939Z,3.00
2023-01-27T09:05:26.471Z,0.00
2023-01-27T09:07:54.561Z,0.20
2023-01-27T09:10:22.915Z,1.00
2023-01-27T09:12:51.142Z,1.00
2023-01-27T09:15:20.747Z,0.00
2023-01-27T09:17:48.864Z,0.20
2023-01-27T09:20:17.527Z,0.00
2023-01-27T09:22:45.655Z,0.00
2023-01-27T09:25:16.004Z,1.00
2023-01-27T09:27:45.877Z,3.00
2023-01-27T09:30:15.216Z,0.00
2023-01-27T09:32:44.836Z,0.40
2023-01-27T09:35:13.252Z,0.00
2023-01-27T09:37:43.646Z,0.80
2023-01-27T09:40:17.067Z,1.00
2023-01-27T09:42:53.115Z,1.00
2023-01-27T09:45:42.900Z,0.00
2023-01-27T09:48:19.499Z,0.20
2023-01-27T09:50:48.537Z,0.20
2023-01-27T09:53:41.394Z,0.80
2023-01-27T09:56:12.398Z,1.00
2023-01-27T09:58:49.271Z,1.00
2023-01-27T10:01:21.250Z,0.20
2023-01-27T10:04:09.010Z,0.00
2023-01-27T10:06:42.585Z,1.00
2023-01-27T10:09:56.639Z,1.00
2023-01-27T10:12:32.072Z,0.00
2023-01-27T10:15:06.326Z,0.20
2023-01-27T10:17:39.557Z,1.00
2023-01-27T10:20:15.707Z,1.00
2023-01-27T10:22:48.391Z,0.00
2023-01-27T10:25:24.353Z,0.40
2023-01-27T10:27:55.485Z,0.20
2023-01-27T10:30:28.023Z,1.00
2023-01-27T10:32:58.421Z,0.00
2023-01-27T10:35:30.078Z,0.00
2023-01-27T10:38:05.321Z,0.00
2023-01-27T10:40:37.877Z,0.00
2023-01-27T10:43:08.791Z,0.00
2023-01-27T10:45:39.875Z,0.00
2023-01-27T10:48:23.267Z,0.00
2023-01-27T10:50:55.830Z,0.20
2023-01-27T10:53:26.714Z,0.00
2023-01-27T10:55:58.244Z,0.00
2023-01-27T10:58:34.447Z,0.00
2023-01-27T11:01:20.358Z,0.00
2023-01-27T11:03:51.816Z,0.00
2023-01-27T11:06:25.030Z,0.00
2023-01-27T11:08:54.688Z,0.00
2023-01-27T11:11:41.242Z,0.00
2023-01-27T11:14:15.849Z,0.00
2023-01-27T11:16:46.086Z,0.00
2023-01-27T11:19:18.277Z,0.00
2023-01-27T11:21:55.500Z,0.00
2023-01-27T11:24:45.145Z,0.00
2023-01-27T11:27:18.610Z,0.00
2023-01-27T11:29:49.396Z,0.00
2023-01-27T11:32:20.873Z,0.00
2023-01-27T11:34:55.715Z,0.00
2023-01-27T11:37:26.899Z,0.80
2023-01-27T11:39:55.399Z,0.00
2023-01-27T11:42:31.562Z,0.40
2023-01-27T11:44:59.800Z,0.40
2023-01-27T11:47:29.152Z,0.00
2023-01-27T11:49:57.121Z,0.80
2023-01-27T11:52:29.238Z,1.00
2023-01-27T11:55:01.688Z,1.00
2023-01-27T11:57:30.347Z,0.00
2023-01-27T12:00:00.396Z,1.00
2023-01-27T12:02:33.316Z,1.00
2023-01-27T12:05:04.680Z,0.80
2023-01-27T12:07:44.704Z,1.00
2023-01-27T12:10:30.783Z,1.00
2023-01-27T12:12:59.399Z,1.00
2023-01-27T12:15:29.298Z,0.60
2023-01-27T12:17:57.958Z,0.00
2023-01-27T12:20:33.651Z,0.40
2023-01-27T12:23:04.963Z,0.80
2023-01-27T12:25:42.880Z,1.40
2023-01-27T12:28:22.101Z,1.00
2023-01-27T12:30:52.791Z,1.00
2023-01-27T12:33:24.032Z,0.40
2023-01-27T12:35:52.127Z,1.00
2023-01-27T12:38:22.658Z,0.80
2023-01-27T12:40:55.961Z,1.40
2023-01-27T12:43:24.557Z,0.00
2023-01-27T12:46:06.153Z,0.00
2023-01-27T12:48:36.536Z,0.60
2023-01-27T12:51:09.099Z,0.00
2023-01-27T12:53:39.886Z,0.00
2023-01-27T12:56:12.643Z,0.20
2023-01-27T12:58:41.361Z,0.40
2023-01-27T13:01:26.936Z,0.00
2023-01-27T13:03:56.689Z,0.20
2023-01-27T13:06:32.058Z,3.60
2023-01-27T13:09:03.111Z,0.00
2023-01-27T13:11:35.299Z,0.00
2023-01-27T13:14:06.373Z,0.80
2023-01-27T13:16:34.636Z,0.00
2023-01-27T13:19:02.759Z,0.40
2023-01-27T13:21:33.592Z,0.00
2023-01-27T13:24:03.575Z,0.00
2023-01-27T13:26:32.994Z,0.80
2023-01-27T13:29:04.234Z,1.00
2023-01-27T13:31:38.038Z,0.80
2023-01-27T13:34:07.762Z,0.00
2023-01-27T13:36:39.087Z,1.00
2023-01-27T13:39:15.451Z,1.00
2023-01-27T13:41:45.966Z,1.00
2023-01-27T13:44:18.667Z,0.60
2023-01-27T13:46:46.764Z,0.80
2023-01-27T13:49:23.682Z,0.00
2023-01-27T13:51:51.614Z,0.80
2023-01-27T13:54:23.822Z,0.00
2023-01-27T13:56:59.041Z,1.00
2023-01-27T13:59:37.528Z,0.80
2023-01-27T14:02:22.622Z,1.00
2023-01-27T14:05:07.224Z,0.20
2023-01-27T14:07:37.488Z,1.00
2023-01-27T14:10:16.817Z,0.00
2023-01-27T14:13:07.688Z,0.60
2023-01-27T14:15:39.252Z,0.00
2023-01-27T14:18:12.069Z,0.40
2023-01-27T14:20:50.624Z,0.00
2023-01-27T14:23:40.842Z,0.80
2023-01-27T14:26:17.105Z,0.40
2023-01-27T14:28:59.173Z,0.00
2023-01-27T14:31:34.593Z,3.00
2023-01-27T14:34:04.907Z,1.00
2023-01-27T14:36:34.856Z,0.00
2023-01-27T14:39:06.935Z,1.00
2023-01-27T14:41:40.720Z,0.40
2023-01-27T14:44:15.124Z,0.80
2023-01-27T14:46:52.061Z,1.80
2023-01-27T14:49:22.855Z,0.60
2023-01-27T14:51:52.525Z,1.00
2023-01-27T14:54:34.247Z,0.20
2023-01-27T14:57:16.969Z,0.80
2023-01-27T14:59:49.094Z,1.00
2023-01-27T15:02:31.547Z,1.00
2023-01-27T15:05:01.699Z,0.00
2023-01-27T15:07:34.664Z,0.00
2023-01-27T15:10:16.236Z,0.00
2023-01-27T15:13:18.404Z,1.00
2023-01-27T15:16:16.738Z,1.00
2023-01-27T15:18:59.345Z,1.00
2023-01-27T15:21:40.099Z,1.00
2023-01-27T15:24:26.291Z,2.20
2023-01-27T15:26:54.296Z,0.80
2023-01-27T15:29:26.387Z,1.00
2023-01-27T15:32:13.765Z,1.00
2023-01-27T15:34:42.649Z,0.80
2023-01-27T15:37:22.865Z,0.80
2023-01-27T15:40:04.492Z,1.00
2023-01-27T15:42:52.411Z,1.00
2023-01-27T15:45:32.247Z,1.00
2023-01-27T15:48:01.309Z,1.00
2023-01-27T15:50:31.875Z,1.00
2023-01-27T15:53:04.455Z,1.00
2023-01-27T15:55:33.212Z,1.00
2023-01-27T15:58:06.786Z,0.80
2023-01-27T16:00:37.826Z,1.00
2023-01-27T16:03:06.912Z,0.00
2023-01-27T16:05:38.755Z,2.60
2023-01-27T16:08:12.451Z,0.60
2023-01-27T16:10:41.137Z,0.80
2023-01-27T16:13:25.555Z,1.00
2023-01-27T16:16:32.660Z,1.40
2023-01-27T16:19:13.152Z,1.00
2023-01-27T16:21:45.249Z,0.00
2023-01-27T16:24:18.357Z,0.00
2023-01-27T16:26:48.170Z,1.00
2023-01-27T16:29:28.725Z,0.00
2023-01-27T16:32:00.083Z,3.00
2023-01-27T16:34:34.480Z,1.00
2023-01-27T16:37:03.930Z,1.00
2023-01-27T16:39:37.291Z,1.00
2023-01-27T16:42:05.414Z,1.00
2023-01-27T16:44:39.563Z,3.00
2023-01-27T16:47:16.726Z,1.80
2023-01-27T16:49:48.759Z,0.00
2023-01-27T16:52:19.876Z,1.00
2023-01-27T16:54:51.556Z,2.60
2023-01-27T16:57:29.053Z,1.00
2023-01-27T16:59:57.111Z,3.00
2023-01-27T17:02:26.507Z,0.00
2023-01-27T17:04:57.021Z,1.40
2023-01-27T17:07:25.019Z,0.00
2023-01-27T17:09:56.491Z,3.00
2023-01-27T17:12:30.979Z,3.80
2023-01-27T17:15:00.871Z,1.40
2023-01-27T17:17:30.307Z,0.00
2023-01-27T17:20:02.399Z,3.00
2023-01-27T17:22:36.608Z,3.00
2023-01-27T17:25:06.681Z,2.20
2023-01-27T17:27:35.587Z,2.60
2023-01-27T17:30:07.126Z,3.00
2023-01-27T17:32:36.799Z,1.40
2023-01-27T17:35:07.836Z,2.60
2023-01-27T17:37:36.267Z,3.00
2023-01-27T17:40:04.766Z,2.20
2023-01-27T17:42:34.590Z,4.00
2023-01-27T17:45:24.353Z,4.00
2023-01-27T17:47:52.460Z,3.00
2023-01-27T17:50:22.996Z,1.00
2023-01-27T17:52:52.697Z,4.00
2023-01-27T17:55:22.307Z,2.20
2023-01-27T17:57:51.765Z,3.20
2023-01-27T18:00:23.251Z,3.00
2023-01-27T18:02:53.575Z,4.00
2023-01-27T18:05:25.701Z,4.00
2023-01-27T18:07:54.911Z,3.00
2023-01-27T18:10:44.245Z,3.20
2023-01-27T18:13:36.277Z,3.60
2023-01-27T18:16:05.124Z,3.00
2023-01-27T18:18:34.204Z,1.40
2023-01-27T18:21:16.328Z,1.80
2023-01-27T18:23:45.480Z,3.60
2023-01-27T18:26:19.204Z,3.00
2023-01-27T18:28:49.983Z,1.00
2023-01-27T18:31:19.707Z,2.60
2023-01-27T18:33:56.900Z,3.60
2023-01-27T18:36:26.451Z,3.00
2023-01-27T18:38:54.593Z,3.00
2023-01-27T18:41:27.509Z,1.40
2023-01-27T18:43:55.742Z,3.00
2023-01-27T18:46:23.906Z,1.00
2023-01-27T18:48:51.920Z,3.20
2023-01-27T18:51:20.266Z,3.20
2023-01-27T18:53:49.697Z,2.60
2023-01-27T18:56:17.820Z,3.00
2023-01-27T18:58:45.882Z,4.00
2023-01-27T19:01:17.423Z,4.00
2023-01-27T19:03:46.250Z,3.00
2023-01-27T19:06:16.268Z,4.00
2023-01-27T19:08:44.357Z,2.60
2023-01-27T19:11:16.949Z,4.00
2023-01-27T19:13:45.183Z,3.00
2023-01-27T19:16:14.979Z,3.00
2023-01-27T19:18:43.566Z,3.00
2023-01-27T19:21:13.132Z,3.80
2023-01-27T19:23:44.519Z,1.00
2023-01-27T19:26:17.820Z,2.60
2023-01-27T19:28:46.191Z,4.00
2023-01-27T19:31:16.553Z,4.00
2023-01-27T19:33:45.089Z,1.00
2023-01-27T19:36:20.942Z,3.80
2023-01-27T19:38:49.177Z,3.00
2023-01-27T19:41:18.631Z,1.00
2023-01-27T19:43:50.003Z,0.00
2023-01-27T19:46:20.276Z,1.80
2023-01-27T19:48:49.594Z,4.00
2023-01-27T19:51:18.966Z,4.00
2023-01-27T19:53:46.947Z,2.60
2023-01-27T19:56:17.066Z,4.80
2023-01-27T19:58:49.916Z,2.20
2023-01-27T20:01:18.151Z,4.00
2023-01-27T20:03:46.682Z,3.00
2023-01-27T20:06:16.859Z,3.00
2023-01-27T20:08:44.965Z,3.00
2023-01-27T20:11:34.857Z,2.60
2023-01-27T20:14:07.053Z,4.00
2023-01-27T20:16:35.973Z,3.00
2023-01-27T20:19:04.209Z,0.00
2023-01-27T20:21:34.391Z,3.20
2023-01-27T20:24:02.596Z,3.80
2023-01-27T20:26:31.353Z,4.40
2023-01-27T20:28:59.442Z,0.60
2023-01-27T20:31:28.887Z,3.00
2023-01-27T20:33:57.054Z,2.60
2023-01-27T20:36:25.106Z,3.00
2023-01-27T20:38:53.192Z,1.00
2023-01-27T20:41:24.446Z,1.00
2023-01-27T20:43:56.008Z,1.00
2023-01-27T20:46:24.047Z,1.00
2023-01-27T20:48:53.495Z,3.00
2023-01-27T20:51:21.492Z,3.00
2023-01-27T20:53:49.593Z,2.20
2023-01-27T20:56:18.478Z,2.60
2023-01-27T20:58:46.690Z,4.00
2023-01-27T21:01:15.322Z,3.00
2023-01-27T21:03:43.945Z,1.00
2023-01-27T21:06:15.629Z,2.60
2023-01-27T21:08:43.860Z,3.00
2023-01-27T21:11:13.237Z,1.80
2023-01-27T21:13:41.248Z,1.00
2023-01-27T21:16:10.449Z,0.00
2023-01-27T21:18:38.642Z,3.00
2023-01-27T21:21:07.372Z,2.20
2023-01-27T21:23:36.744Z,4.00
2023-01-27T21:26:05.467Z,1.00
2023-01-27T21:28:34.004Z,2.20
2023-01-27T21:31:06.724Z,1.40
2023-01-27T21:33:36.921Z,0.60
2023-01-27T21:36:05.247Z,2.20
2023-01-27T21:38:33.305Z,1.00
2023-01-27T21:41:06.934Z,3.00
2023-01-27T21:43:52.225Z,1.00
2023-01-27T21:46:20.349Z,3.00
2023-01-27T21:48:49.073Z,3.00
2023-01-27T21:51:17.085Z,1.40
2023-01-27T21:53:45.155Z,3.00
2023-01-27T21:56:14.533Z,1.00
2023-01-27T21:58:42.517Z,1.40
2023-01-27T22:01:11.248Z,1.00
2023-01-27T22:03:39.577Z,1.40
2023-01-27T22:06:08.680Z,2.20
2023-01-27T22:08:36.845Z,3.00
2023-01-27T22:11:05.325Z,3.00
2023-01-27T22:13:34.998Z,3.00
2023-01-27T22:16:03.687Z,1.00
2023-01-27T22:18:31.804Z,2.20
2023-01-27T22:21:02.374Z,0.00
2023-01-27T22:23:30.929Z,1.00
2023-01-27T22:25:59.205Z,3.00
2023-01-27T22:28:28.728Z,3.00
2023-01-27T22:31:02.271Z,3.00
2023-01-27T22:33:32.214Z,3.00
2023-01-27T22:36:01.126Z,1.00
2023-01-27T22:38:29.122Z,1.00
2023-01-27T22:40:57.920Z,1.40
2023-01-27T22:43:26.021Z,3.00
2023-01-27T22:45:54.038Z,1.80
2023-01-27T22:48:23.491Z,3.00
2023-01-27T22:50:52.010Z,1.00
2023-01-27T22:53:20.088Z,1.00
2023-01-27T22:55:48.123Z,1.00
2023-01-27T22:58:16.643Z,1.40
2023-01-27T23:00:44.684Z,3.00
2023-01-27T23:03:12.718Z,1.00
2023-01-27T23:05:42.076Z,4.00
2023-01-27T23:08:10.097Z,3.00
2023-01-27T23:10:38.127Z,1.00
2023-01-27T23:13:06.145Z,2.20
2023-01-27T23:15:34.754Z,3.00
2023-01-27T23:18:02.912Z,3.20
2023-01-27T23:20:30.887Z,1.00
2023-01-27T23:23:00.727Z,1.00
2023-01-27T23:25:28.744Z,0.00
2023-01-27T23:27:56.762Z,3.40
2023-01-27T23:30:24.839Z,3.00
2023-01-27T23:32:52.835Z,3.00
2023-01-27T23:35:21.457Z,3.60
2023-01-27T23:37:49.551Z,3.00
2023-01-27T23:40:19.945Z,1.00
2023-01-27T23:42:47.973Z,3.40
2023-01-27T23:45:16.377Z,0.80
2023-01-27T23:47:44.985Z,3.00
2023-01-27T23:50:13.080Z,1.00
2023-01-27T23:52:41.043Z,3.80
2023-01-27T23:55:09.798Z,0.80
2023-01-27T23:57:39.214Z,3.40
